sensor_id;sensor_type;location;lat;lon;timestamp;temperature;humidity
41324;DHT22;27073;51.128;4.220;2022-08-21T00:01:27;18.80;99.90
41324;DHT22;27073;51.128;4.220;2022-08-21T00:03:55;18.70;99.90
41324;DHT22;27073;51.128;4.220;2022-08-21T00:06:21;18.40;99.90
41324;DHT22;27073;51.128;4.220;2022-08-21T00:08:50;18.20;99.90
41324;DHT22;27073;51.128;4.220;2022-08-21T00:11:17;18.30;99.90
41324;DHT22;27073;51.128;4.220;2022-08-21T00:13:42;18.40;99.90
41324;DHT22;27073;51.128;4.220;2022-08-21T00:16:09;18.40;99.90
41324;DHT22;27073;51.128;4.220;2022-08-21T00:18:35;18.10;99.90
41324;DHT22;27073;51.128;4.220;2022-08-21T00:21:01;18.00;99.90
41324;DHT22;27073;51.128;4.220;2022-08-21T00:23:27;18.00;99.90
41324;DHT22;27073;51.128;4.220;2022-08-21T00:25:52;17.70;99.90
41324;DHT22;27073;51.128;4.220;2022-08-21T00:28:18;17.80;99.90
41324;DHT22;27073;51.128;4.220;2022-08-21T00:30:45;17.90;99.90
41324;DHT22;27073;51.128;4.220;2022-08-21T00:33:12;17.90;99.90
41324;DHT22;27073;51.128;4.220;2022-08-21T00:35:40;18.00;99.90
41324;DHT22;27073;51.128;4.220;2022-08-21T00:38:07;18.00;99.90
41324;DHT22;27073;51.128;4.220;2022-08-21T00:40:40;17.80;99.90
41324;DHT22;27073;51.128;4.220;2022-08-21T00:43:10;17.70;99.90
41324;DHT22;27073;51.128;4.220;2022-08-21T00:45:37;17.70;99.90
41324;DHT22;27073;51.128;4.220;2022-08-21T00:48:03;17.70;99.90
41324;DHT22;27073;51.128;4.220;2022-08-21T00:50:33;17.60;99.90
41324;DHT22;27073;51.128;4.220;2022-08-21T00:53:00;17.80;99.90
41324;DHT22;27073;51.128;4.220;2022-08-21T00:55:27;17.70;99.90
41324;DHT22;27073;51.128;4.220;2022-08-21T00:57:55;17.90;99.90
41324;DHT22;27073;51.128;4.220;2022-08-21T01:00:26;17.90;99.90
41324;DHT22;27073;51.128;4.220;2022-08-21T01:02:55;17.80;99.90
41324;DHT22;27073;51.128;4.220;2022-08-21T01:05:21;17.80;99.90
41324;DHT22;27073;51.128;4.220;2022-08-21T01:07:47;17.90;99.90
41324;DHT22;27073;51.128;4.220;2022-08-21T01:10:13;17.90;99.90
41324;DHT22;27073;51.128;4.220;2022-08-21T01:12:40;17.60;99.90
41324;DHT22;27073;51.128;4.220;2022-08-21T01:15:09;17.80;99.90
41324;DHT22;27073;51.128;4.220;2022-08-21T01:17:36;17.80;99.90
41324;DHT22;27073;51.128;4.220;2022-08-21T01:20:05;17.70;99.90
41324;DHT22;27073;51.128;4.220;2022-08-21T01:22:32;17.60;99.90
41324;DHT22;27073;51.128;4.220;2022-08-21T01:24:57;17.80;99.90
41324;DHT22;27073;51.128;4.220;2022-08-21T01:27:23;17.70;99.90
41324;DHT22;27073;51.128;4.220;2022-08-21T01:29:54;17.50;99.90
41324;DHT22;27073;51.128;4.220;2022-08-21T01:32:23;17.70;99.90
41324;DHT22;27073;51.128;4.220;2022-08-21T01:34:50;18.00;99.90
41324;DHT22;27073;51.128;4.220;2022-08-21T01:37:18;18.10;99.90
41324;DHT22;27073;51.128;4.220;2022-08-21T01:39:45;18.00;99.90
41324;DHT22;27073;51.128;4.220;2022-08-21T01:42:11;18.00;99.90
41324;DHT22;27073;51.128;4.220;2022-08-21T01:44:38;17.90;99.90
41324;DHT22;27073;51.128;4.220;2022-08-21T01:47:07;17.90;99.90
41324;DHT22;27073;51.128;4.220;2022-08-21T01:49:35;17.80;99.90
41324;DHT22;27073;51.128;4.220;2022-08-21T01:52:00;17.90;99.90
41324;DHT22;27073;51.128;4.220;2022-08-21T01:54:26;17.80;99.90
41324;DHT22;27073;51.128;4.220;2022-08-21T01:56:53;17.80;99.90
41324;DHT22;27073;51.128;4.220;2022-08-21T01:59:21;17.90;99.90
41324;DHT22;27073;51.128;4.220;2022-08-21T02:01:47;17.70;99.90
41324;DHT22;27073;51.128;4.220;2022-08-21T02:04:13;17.60;99.90
41324;DHT22;27073;51.128;4.220;2022-08-21T02:06:39;17.60;99.90
41324;DHT22;27073;51.128;4.220;2022-08-21T02:09:07;17.60;99.90
41324;DHT22;27073;51.128;4.220;2022-08-21T02:11:34;17.40;99.90
41324;DHT22;27073;51.128;4.220;2022-08-21T02:14:00;17.50;99.90
41324;DHT22;27073;51.128;4.220;2022-08-21T02:16:25;17.40;99.90
41324;DHT22;27073;51.128;4.220;2022-08-21T02:18:52;17.00;99.90
41324;DHT22;27073;51.128;4.220;2022-08-21T02:21:18;17.00;99.90
41324;DHT22;27073;51.128;4.220;2022-08-21T02:23:44;17.00;99.90
41324;DHT22;27073;51.128;4.220;2022-08-21T02:26:11;17.00;99.90
41324;DHT22;27073;51.128;4.220;2022-08-21T02:28:37;17.20;99.90
41324;DHT22;27073;51.128;4.220;2022-08-21T02:31:04;17.00;99.90
41324;DHT22;27073;51.128;4.220;2022-08-21T02:33:31;17.20;99.90
41324;DHT22;27073;51.128;4.220;2022-08-21T02:35:57;17.00;99.90
41324;DHT22;27073;51.128;4.220;2022-08-21T02:38:27;16.80;99.90
41324;DHT22;27073;51.128;4.220;2022-08-21T02:40:54;16.80;99.90
41324;DHT22;27073;51.128;4.220;2022-08-21T02:43:22;16.70;99.90
41324;DHT22;27073;51.128;4.220;2022-08-21T02:45:48;17.00;99.90
41324;DHT22;27073;51.128;4.220;2022-08-21T02:48:17;16.90;99.90
41324;DHT22;27073;51.128;4.220;2022-08-21T02:50:50;16.90;99.90
41324;DHT22;27073;51.128;4.220;2022-08-21T02:53:17;17.00;99.90
41324;DHT22;27073;51.128;4.220;2022-08-21T02:55:48;17.10;99.90
41324;DHT22;27073;51.128;4.220;2022-08-21T02:58:18;17.00;99.90
41324;DHT22;27073;51.128;4.220;2022-08-21T03:00:44;16.90;99.90
41324;DHT22;27073;51.128;4.220;2022-08-21T03:03:10;17.20;99.90
41324;DHT22;27073;51.128;4.220;2022-08-21T03:05:38;17.30;99.90
41324;DHT22;27073;51.128;4.220;2022-08-21T03:08:06;17.30;99.90
41324;DHT22;27073;51.128;4.220;2022-08-21T03:10:36;17.20;99.90
41324;DHT22;27073;51.128;4.220;2022-08-21T03:13:02;17.20;99.90
41324;DHT22;27073;51.128;4.220;2022-08-21T03:15:29;16.60;99.90
41324;DHT22;27073;51.128;4.220;2022-08-21T03:17:55;16.60;99.90
41324;DHT22;27073;51.128;4.220;2022-08-21T03:20:24;16.50;99.90
41324;DHT22;27073;51.128;4.220;2022-08-21T03:22:52;16.60;99.90
41324;DHT22;27073;51.128;4.220;2022-08-21T03:25:18;16.70;99.90
41324;DHT22;27073;51.128;4.220;2022-08-21T03:27:45;16.80;99.90
41324;DHT22;27073;51.128;4.220;2022-08-21T03:30:12;17.00;99.90
41324;DHT22;27073;51.128;4.220;2022-08-21T03:32:38;16.80;99.90
41324;DHT22;27073;51.128;4.220;2022-08-21T03:35:05;16.70;99.90
41324;DHT22;27073;51.128;4.220;2022-08-21T03:37:31;16.40;99.90
41324;DHT22;27073;51.128;4.220;2022-08-21T03:39:58;16.30;99.90
41324;DHT22;27073;51.128;4.220;2022-08-21T03:42:24;16.10;99.90
41324;DHT22;27073;51.128;4.220;2022-08-21T03:44:50;16.10;99.90
41324;DHT22;27073;51.128;4.220;2022-08-21T03:47:16;16.20;99.90
41324;DHT22;27073;51.128;4.220;2022-08-21T03:49:41;16.30;99.90
41324;DHT22;27073;51.128;4.220;2022-08-21T03:52:08;16.30;99.90
41324;DHT22;27073;51.128;4.220;2022-08-21T03:54:34;16.40;99.90
41324;DHT22;27073;51.128;4.220;2022-08-21T03:57:00;16.30;99.90
41324;DHT22;27073;51.128;4.220;2022-08-21T03:59:26;16.20;99.90
41324;DHT22;27073;51.128;4.220;2022-08-21T04:01:58;16.20;99.90
41324;DHT22;27073;51.128;4.220;2022-08-21T04:04:26;16.30;99.90
41324;DHT22;27073;51.128;4.220;2022-08-21T04:06:52;16.50;99.90
41324;DHT22;27073;51.128;4.220;2022-08-21T04:09:18;16.50;99.90
41324;DHT22;27073;51.128;4.220;2022-08-21T04:11:44;16.50;99.90
41324;DHT22;27073;51.128;4.220;2022-08-21T04:14:12;16.40;99.90
41324;DHT22;27073;51.128;4.220;2022-08-21T04:16:39;16.50;99.90
41324;DHT22;27073;51.128;4.220;2022-08-21T04:19:06;16.50;99.90
41324;DHT22;27073;51.128;4.220;2022-08-21T04:21:32;16.40;99.90
41324;DHT22;27073;51.128;4.220;2022-08-21T04:23:58;16.30;99.90
41324;DHT22;27073;51.128;4.220;2022-08-21T04:26:25;16.20;99.90
41324;DHT22;27073;51.128;4.220;2022-08-21T04:28:51;16.10;99.90
41324;DHT22;27073;51.128;4.220;2022-08-21T04:31:18;16.10;99.90
41324;DHT22;27073;51.128;4.220;2022-08-21T04:33:44;16.20;99.90
41324;DHT22;27073;51.128;4.220;2022-08-21T04:36:11;16.20;99.90
41324;DHT22;27073;51.128;4.220;2022-08-21T04:38:37;16.10;99.90
41324;DHT22;27073;51.128;4.220;2022-08-21T04:41:04;16.00;99.90
41324;DHT22;27073;51.128;4.220;2022-08-21T04:43:31;16.10;99.90
41324;DHT22;27073;51.128;4.220;2022-08-21T04:45:56;16.10;99.90
41324;DHT22;27073;51.128;4.220;2022-08-21T04:48:23;16.20;99.90
41324;DHT22;27073;51.128;4.220;2022-08-21T04:51:09;16.10;99.90
41324;DHT22;27073;51.128;4.220;2022-08-21T04:53:49;16.10;99.90
41324;DHT22;27073;51.128;4.220;2022-08-21T04:56:28;16.30;99.90
41324;DHT22;27073;51.128;4.220;2022-08-21T04:59:00;16.20;99.90
41324;DHT22;27073;51.128;4.220;2022-08-21T05:01:29;16.30;99.90
41324;DHT22;27073;51.128;4.220;2022-08-21T05:03:58;16.40;99.90
41324;DHT22;27073;51.128;4.220;2022-08-21T05:06:25;16.30;99.90
41324;DHT22;27073;51.128;4.220;2022-08-21T05:08:53;16.40;99.90
41324;DHT22;27073;51.128;4.220;2022-08-21T05:11:19;16.10;99.90
41324;DHT22;27073;51.128;4.220;2022-08-21T05:13:48;16.10;99.90
41324;DHT22;27073;51.128;4.220;2022-08-21T05:16:15;16.20;99.90
41324;DHT22;27073;51.128;4.220;2022-08-21T05:18:41;16.10;99.90
41324;DHT22;27073;51.128;4.220;2022-08-21T05:21:07;16.20;99.90
41324;DHT22;27073;51.128;4.220;2022-08-21T05:23:33;16.20;99.90
41324;DHT22;27073;51.128;4.220;2022-08-21T05:25:59;16.00;99.90
41324;DHT22;27073;51.128;4.220;2022-08-21T05:28:25;15.90;99.90
41324;DHT22;27073;51.128;4.220;2022-08-21T05:30:51;16.00;99.90
41324;DHT22;27073;51.128;4.220;2022-08-21T05:33:17;16.00;99.90
41324;DHT22;27073;51.128;4.220;2022-08-21T05:35:43;16.10;99.90
41324;DHT22;27073;51.128;4.220;2022-08-21T05:38:10;16.20;99.90
41324;DHT22;27073;51.128;4.220;2022-08-21T05:40:35;16.30;99.90
41324;DHT22;27073;51.128;4.220;2022-08-21T05:43:01;16.10;99.90
41324;DHT22;27073;51.128;4.220;2022-08-21T05:45:30;16.10;99.90
41324;DHT22;27073;51.128;4.220;2022-08-21T05:47:57;16.10;99.90
41324;DHT22;27073;51.128;4.220;2022-08-21T05:50:22;16.20;99.90
41324;DHT22;27073;51.128;4.220;2022-08-21T05:52:48;16.20;99.90
41324;DHT22;27073;51.128;4.220;2022-08-21T05:55:14;16.20;99.90
41324;DHT22;27073;51.128;4.220;2022-08-21T05:57:40;16.20;99.90
41324;DHT22;27073;51.128;4.220;2022-08-21T06:00:08;16.20;99.90
41324;DHT22;27073;51.128;4.220;2022-08-21T06:02:39;16.20;99.90
41324;DHT22;27073;51.128;4.220;2022-08-21T06:05:06;16.20;99.90
41324;DHT22;27073;51.128;4.220;2022-08-21T06:07:32;16.20;99.90
41324;DHT22;27073;51.128;4.220;2022-08-21T06:09:57;16.30;99.90
41324;DHT22;27073;51.128;4.220;2022-08-21T06:12:23;16.30;99.90
41324;DHT22;27073;51.128;4.220;2022-08-21T06:14:49;16.30;99.90
41324;DHT22;27073;51.128;4.220;2022-08-21T06:17:17;16.30;99.90
41324;DHT22;27073;51.128;4.220;2022-08-21T06:19:43;16.20;99.90
41324;DHT22;27073;51.128;4.220;2022-08-21T06:22:09;16.20;99.90
41324;DHT22;27073;51.128;4.220;2022-08-21T06:24:35;16.40;99.90
41324;DHT22;27073;51.128;4.220;2022-08-21T06:27:07;16.50;99.90
41324;DHT22;27073;51.128;4.220;2022-08-21T06:29:34;16.60;99.90
41324;DHT22;27073;51.128;4.220;2022-08-21T06:32:01;16.60;99.90
41324;DHT22;27073;51.128;4.220;2022-08-21T06:34:27;16.70;99.90
41324;DHT22;27073;51.128;4.220;2022-08-21T06:36:52;16.70;99.90
41324;DHT22;27073;51.128;4.220;2022-08-21T06:39:18;16.70;99.90
41324;DHT22;27073;51.128;4.220;2022-08-21T06:41:44;16.80;99.90
41324;DHT22;27073;51.128;4.220;2022-08-21T06:44:10;16.80;99.90
41324;DHT22;27073;51.128;4.220;2022-08-21T06:46:36;16.90;99.90
41324;DHT22;27073;51.128;4.220;2022-08-21T06:49:02;17.00;99.90
41324;DHT22;27073;51.128;4.220;2022-08-21T06:51:29;17.00;99.90
41324;DHT22;27073;51.128;4.220;2022-08-21T06:53:56;17.10;99.90
41324;DHT22;27073;51.128;4.220;2022-08-21T06:56:22;17.10;99.90
41324;DHT22;27073;51.128;4.220;2022-08-21T06:58:48;17.10;99.90
41324;DHT22;27073;51.128;4.220;2022-08-21T07:01:14;17.20;99.90
41324;DHT22;27073;51.128;4.220;2022-08-21T07:03:41;17.30;99.90
41324;DHT22;27073;51.128;4.220;2022-08-21T07:06:09;17.40;99.90
41324;DHT22;27073;51.128;4.220;2022-08-21T07:08:36;17.30;99.90
41324;DHT22;27073;51.128;4.220;2022-08-21T07:11:04;17.40;99.90
41324;DHT22;27073;51.128;4.220;2022-08-21T07:13:34;17.60;99.90
41324;DHT22;27073;51.128;4.220;2022-08-21T07:16:00;17.60;99.90
41324;DHT22;27073;51.128;4.220;2022-08-21T07:18:25;17.60;99.90
41324;DHT22;27073;51.128;4.220;2022-08-21T07:20:51;17.60;99.90
41324;DHT22;27073;51.128;4.220;2022-08-21T07:23:29;17.70;99.90
41324;DHT22;27073;51.128;4.220;2022-08-21T07:25:55;17.80;99.90
41324;DHT22;27073;51.128;4.220;2022-08-21T07:28:21;17.80;99.90
41324;DHT22;27073;51.128;4.220;2022-08-21T07:30:52;17.90;99.90
41324;DHT22;27073;51.128;4.220;2022-08-21T07:33:19;17.90;99.90
41324;DHT22;27073;51.128;4.220;2022-08-21T07:35:51;18.00;99.90
41324;DHT22;27073;51.128;4.220;2022-08-21T07:38:20;18.10;99.90
41324;DHT22;27073;51.128;4.220;2022-08-21T07:40:49;18.20;99.90
41324;DHT22;27073;51.128;4.220;2022-08-21T07:43:16;18.30;99.90
41324;DHT22;27073;51.128;4.220;2022-08-21T07:45:44;18.40;99.90
41324;DHT22;27073;51.128;4.220;2022-08-21T07:48:10;18.40;99.90
41324;DHT22;27073;51.128;4.220;2022-08-21T07:50:36;18.60;99.90
41324;DHT22;27073;51.128;4.220;2022-08-21T07:53:02;18.70;99.90
41324;DHT22;27073;51.128;4.220;2022-08-21T07:55:29;18.70;99.90
41324;DHT22;27073;51.128;4.220;2022-08-21T07:57:55;18.70;99.90
41324;DHT22;27073;51.128;4.220;2022-08-21T08:00:23;18.70;99.90
41324;DHT22;27073;51.128;4.220;2022-08-21T08:02:51;18.90;99.90
41324;DHT22;27073;51.128;4.220;2022-08-21T08:05:27;19.00;99.90
41324;DHT22;27073;51.128;4.220;2022-08-21T08:07:54;19.00;99.90
41324;DHT22;27073;51.128;4.220;2022-08-21T08:10:23;19.00;99.90
41324;DHT22;27073;51.128;4.220;2022-08-21T08:12:51;19.10;99.90
41324;DHT22;27073;51.128;4.220;2022-08-21T08:15:24;19.10;99.90
41324;DHT22;27073;51.128;4.220;2022-08-21T08:17:54;19.20;99.90
41324;DHT22;27073;51.128;4.220;2022-08-21T08:20:21;19.10;99.90
41324;DHT22;27073;51.128;4.220;2022-08-21T08:22:48;19.20;99.90
41324;DHT22;27073;51.128;4.220;2022-08-21T08:25:15;19.30;99.90
41324;DHT22;27073;51.128;4.220;2022-08-21T08:27:41;19.30;99.90
41324;DHT22;27073;51.128;4.220;2022-08-21T08:30:10;19.30;99.90
41324;DHT22;27073;51.128;4.220;2022-08-21T08:32:36;19.40;99.90
41324;DHT22;27073;51.128;4.220;2022-08-21T08:35:03;19.40;99.90
41324;DHT22;27073;51.128;4.220;2022-08-21T08:37:29;19.50;99.90
41324;DHT22;27073;51.128;4.220;2022-08-21T08:39:55;19.60;99.90
41324;DHT22;27073;51.128;4.220;2022-08-21T08:42:28;19.70;99.90
41324;DHT22;27073;51.128;4.220;2022-08-21T08:47:27;19.70;99.90
41324;DHT22;27073;51.128;4.220;2022-08-21T08:50:04;19.80;99.90
41324;DHT22;27073;51.128;4.220;2022-08-21T08:52:34;19.80;99.90
41324;DHT22;27073;51.128;4.220;2022-08-21T08:57:32;20.00;99.90
41324;DHT22;27073;51.128;4.220;2022-08-21T09:00:03;20.10;99.90
41324;DHT22;27073;51.128;4.220;2022-08-21T09:02:29;20.10;99.90
41324;DHT22;27073;51.128;4.220;2022-08-21T09:04:55;20.20;99.90
41324;DHT22;27073;51.128;4.220;2022-08-21T09:07:51;20.20;99.90
41324;DHT22;27073;51.128;4.220;2022-08-21T09:18:58;20.80;99.90
41324;DHT22;27073;51.128;4.220;2022-08-21T09:27:13;20.80;99.90
41324;DHT22;27073;51.128;4.220;2022-08-21T09:29:42;20.80;99.90
41324;DHT22;27073;51.128;4.220;2022-08-21T09:32:22;20.80;99.90
41324;DHT22;27073;51.128;4.220;2022-08-21T09:37:35;20.70;99.90
41324;DHT22;27073;51.128;4.220;2022-08-21T09:40:37;20.60;99.90
41324;DHT22;27073;51.128;4.220;2022-08-21T09:45:35;20.70;99.90
41324;DHT22;27073;51.128;4.220;2022-08-21T09:48:18;20.90;99.90
41324;DHT22;27073;51.128;4.220;2022-08-21T09:50:46;20.90;99.90
41324;DHT22;27073;51.128;4.220;2022-08-21T09:53:28;20.80;99.90
41324;DHT22;27073;51.128;4.220;2022-08-21T09:56:02;20.70;99.90
41324;DHT22;27073;51.128;4.220;2022-08-21T09:58:48;20.70;99.90
41324;DHT22;27073;51.128;4.220;2022-08-21T10:01:23;20.90;99.90
41324;DHT22;27073;51.128;4.220;2022-08-21T10:04:05;21.10;99.90
41324;DHT22;27073;51.128;4.220;2022-08-21T10:06:32;21.00;99.90
41324;DHT22;27073;51.128;4.220;2022-08-21T10:09:16;21.00;99.90
41324;DHT22;27073;51.128;4.220;2022-08-21T10:11:51;21.20;99.90
41324;DHT22;27073;51.128;4.220;2022-08-21T10:17:36;21.60;99.90
41324;DHT22;27073;51.128;4.220;2022-08-21T10:25:26;21.50;99.90
41324;DHT22;27073;51.128;4.220;2022-08-21T10:28:13;21.60;99.90
41324;DHT22;27073;51.128;4.220;2022-08-21T10:34:05;22.00;99.90
41324;DHT22;27073;51.128;4.220;2022-08-21T10:36:42;22.30;99.90
41324;DHT22;27073;51.128;4.220;2022-08-21T10:39:26;22.30;99.90
41324;DHT22;27073;51.128;4.220;2022-08-21T10:42:28;22.30;99.90
41324;DHT22;27073;51.128;4.220;2022-08-21T10:55:17;22.60;99.90
41324;DHT22;27073;51.128;4.220;2022-08-21T11:00:46;22.70;99.90
41324;DHT22;27073;51.128;4.220;2022-08-21T11:06:25;22.60;99.90
41324;DHT22;27073;51.128;4.220;2022-08-21T11:08:58;22.80;99.90
41324;DHT22;27073;51.128;4.220;2022-08-21T11:11:32;23.20;99.90
41324;DHT22;27073;51.128;4.220;2022-08-21T11:14:25;23.60;99.50
41324;DHT22;27073;51.128;4.220;2022-08-21T11:17:07;23.50;99.20
41324;DHT22;27073;51.128;4.220;2022-08-21T11:19:35;23.30;99.10
41324;DHT22;27073;51.128;4.220;2022-08-21T11:22:21;23.10;99.10
41324;DHT22;27073;51.128;4.220;2022-08-21T11:24:54;22.90;99.50
41324;DHT22;27073;51.128;4.220;2022-08-21T11:29:59;22.80;99.50
41324;DHT22;27073;51.128;4.220;2022-08-21T11:43:40;23.60;97.80
41324;DHT22;27073;51.128;4.220;2022-08-21T11:46:32;23.40;98.30
41324;DHT22;27073;51.128;4.220;2022-08-21T11:52:01;23.60;97.30
41324;DHT22;27073;51.128;4.220;2022-08-21T11:54:35;23.80;97.50
41324;DHT22;27073;51.128;4.220;2022-08-21T11:57:31;23.70;97.40
41324;DHT22;27073;51.128;4.220;2022-08-21T12:00:16;23.80;97.30
41324;DHT22;27073;51.128;4.220;2022-08-21T12:02:53;24.30;97.70
41324;DHT22;27073;51.128;4.220;2022-08-21T12:05:39;24.40;96.50
41324;DHT22;27073;51.128;4.220;2022-08-21T12:08:14;24.10;96.40
41324;DHT22;27073;51.128;4.220;2022-08-21T12:11:05;23.90;96.70
41324;DHT22;27073;51.128;4.220;2022-08-21T12:13:36;23.90;96.70
41324;DHT22;27073;51.128;4.220;2022-08-21T12:16:13;23.80;96.50
41324;DHT22;27073;51.128;4.220;2022-08-21T12:18:40;23.60;96.90
41324;DHT22;27073;51.128;4.220;2022-08-21T12:21:25;23.70;97.20
41324;DHT22;27073;51.128;4.220;2022-08-21T12:29:43;24.00;96.20
41324;DHT22;27073;51.128;4.220;2022-08-21T12:34:40;23.70;96.30
41324;DHT22;27073;51.128;4.220;2022-08-21T12:37:34;23.60;96.80
41324;DHT22;27073;51.128;4.220;2022-08-21T12:40:04;23.50;96.80
41324;DHT22;27073;51.128;4.220;2022-08-21T12:42:44;23.50;96.90
41324;DHT22;27073;51.128;4.220;2022-08-21T12:45:30;23.60;96.70
41324;DHT22;27073;51.128;4.220;2022-08-21T12:48:07;23.80;96.90
41324;DHT22;27073;51.128;4.220;2022-08-21T12:50:56;24.00;96.70
41324;DHT22;27073;51.128;4.220;2022-08-21T12:55:55;23.80;96.20
41324;DHT22;27073;51.128;4.220;2022-08-21T12:58:27;24.00;96.30
41324;DHT22;27073;51.128;4.220;2022-08-21T13:01:00;24.00;96.30
41324;DHT22;27073;51.128;4.220;2022-08-21T13:03:27;23.80;96.30
41324;DHT22;27073;51.128;4.220;2022-08-21T13:05:53;23.90;96.30
41324;DHT22;27073;51.128;4.220;2022-08-21T13:08:21;24.00;96.10
41324;DHT22;27073;51.128;4.220;2022-08-21T13:10:55;23.90;96.00
41324;DHT22;27073;51.128;4.220;2022-08-21T13:13:24;23.80;96.60
41324;DHT22;27073;51.128;4.220;2022-08-21T13:16:00;23.80;96.50
41324;DHT22;27073;51.128;4.220;2022-08-21T13:18:30;23.90;96.40
41324;DHT22;27073;51.128;4.220;2022-08-21T13:21:10;23.90;96.10
41324;DHT22;27073;51.128;4.220;2022-08-21T13:23:36;23.90;95.50
41324;DHT22;27073;51.128;4.220;2022-08-21T13:26:12;23.90;95.50
41324;DHT22;27073;51.128;4.220;2022-08-21T13:28:38;23.90;95.60
41324;DHT22;27073;51.128;4.220;2022-08-21T13:31:07;23.90;95.70
41324;DHT22;27073;51.128;4.220;2022-08-21T13:33:37;24.00;95.70
41324;DHT22;27073;51.128;4.220;2022-08-21T13:36:09;24.20;95.20
41324;DHT22;27073;51.128;4.220;2022-08-21T13:38:39;24.50;94.70
41324;DHT22;27073;51.128;4.220;2022-08-21T13:43:36;24.80;94.50
41324;DHT22;27073;51.128;4.220;2022-08-21T13:46:10;24.70;94.80
41324;DHT22;27073;51.128;4.220;2022-08-21T13:48:42;24.80;94.70
41324;DHT22;27073;51.128;4.220;2022-08-21T13:51:14;24.40;95.00
41324;DHT22;27073;51.128;4.220;2022-08-21T13:53:48;24.30;95.30
41324;DHT22;27073;51.128;4.220;2022-08-21T13:56:55;24.70;95.30
41324;DHT22;27073;51.128;4.220;2022-08-21T13:59:31;24.90;94.50
41324;DHT22;27073;51.128;4.220;2022-08-21T14:02:19;25.30;94.60
41324;DHT22;27073;51.128;4.220;2022-08-21T14:05:00;25.10;94.40
41324;DHT22;27073;51.128;4.220;2022-08-21T14:07:33;25.00;94.90
41324;DHT22;27073;51.128;4.220;2022-08-21T14:10:13;25.60;94.30
41324;DHT22;27073;51.128;4.220;2022-08-21T14:12:47;25.50;94.10
41324;DHT22;27073;51.128;4.220;2022-08-21T14:15:15;25.10;94.00
41324;DHT22;27073;51.128;4.220;2022-08-21T14:17:44;25.10;94.20
41324;DHT22;27073;51.128;4.220;2022-08-21T14:20:30;25.20;94.10
41324;DHT22;27073;51.128;4.220;2022-08-21T14:22:59;25.40;94.00
41324;DHT22;27073;51.128;4.220;2022-08-21T14:25:28;25.70;93.80
41324;DHT22;27073;51.128;4.220;2022-08-21T14:30:28;25.60;93.20
41324;DHT22;27073;51.128;4.220;2022-08-21T14:32:54;25.40;93.60
41324;DHT22;27073;51.128;4.220;2022-08-21T14:35:20;25.50;93.70
41324;DHT22;27073;51.128;4.220;2022-08-21T14:37:48;25.50;93.70
41324;DHT22;27073;51.128;4.220;2022-08-21T14:40:21;25.30;93.60
41324;DHT22;27073;51.128;4.220;2022-08-21T14:42:48;25.40;93.70
41324;DHT22;27073;51.128;4.220;2022-08-21T14:45:29;25.50;93.30
41324;DHT22;27073;51.128;4.220;2022-08-21T14:48:02;25.30;93.40
41324;DHT22;27073;51.128;4.220;2022-08-21T14:50:30;25.30;93.40
41324;DHT22;27073;51.128;4.220;2022-08-21T14:52:58;25.30;93.70
41324;DHT22;27073;51.128;4.220;2022-08-21T14:55:26;25.50;93.30
41324;DHT22;27073;51.128;4.220;2022-08-21T14:57:55;25.80;92.90
41324;DHT22;27073;51.128;4.220;2022-08-21T15:00:23;25.50;93.20
41324;DHT22;27073;51.128;4.220;2022-08-21T15:02:50;25.70;94.00
41324;DHT22;27073;51.128;4.220;2022-08-21T15:05:17;25.20;93.20
41324;DHT22;27073;51.128;4.220;2022-08-21T15:07:43;25.30;93.30
41324;DHT22;27073;51.128;4.220;2022-08-21T15:10:11;25.20;93.40
41324;DHT22;27073;51.128;4.220;2022-08-21T15:12:38;25.20;93.40
41324;DHT22;27073;51.128;4.220;2022-08-21T15:15:07;25.10;93.30
41324;DHT22;27073;51.128;4.220;2022-08-21T15:17:35;25.00;93.50
41324;DHT22;27073;51.128;4.220;2022-08-21T15:20:01;25.00;93.70
41324;DHT22;27073;51.128;4.220;2022-08-21T15:22:29;25.40;93.40
41324;DHT22;27073;51.128;4.220;2022-08-21T15:24:55;25.60;94.20
41324;DHT22;27073;51.128;4.220;2022-08-21T15:27:20;25.60;93.10
41324;DHT22;27073;51.128;4.220;2022-08-21T15:29:46;25.60;93.20
41324;DHT22;27073;51.128;4.220;2022-08-21T15:32:24;25.50;94.60
41324;DHT22;27073;51.128;4.220;2022-08-21T15:34:52;25.30;93.30
41324;DHT22;27073;51.128;4.220;2022-08-21T15:37:18;25.20;93.60
41324;DHT22;27073;51.128;4.220;2022-08-21T15:39:44;25.10;94.00
41324;DHT22;27073;51.128;4.220;2022-08-21T15:42:11;25.20;93.40
41324;DHT22;27073;51.128;4.220;2022-08-21T15:44:42;25.50;93.80
41324;DHT22;27073;51.128;4.220;2022-08-21T15:47:14;25.50;93.30
41324;DHT22;27073;51.128;4.220;2022-08-21T15:49:42;25.20;93.80
41324;DHT22;27073;51.128;4.220;2022-08-21T15:52:12;25.00;94.20
41324;DHT22;27073;51.128;4.220;2022-08-21T15:54:38;24.60;94.50
41324;DHT22;27073;51.128;4.220;2022-08-21T15:57:04;24.50;94.70
41324;DHT22;27073;51.128;4.220;2022-08-21T15:59:38;24.30;95.20
41324;DHT22;27073;51.128;4.220;2022-08-21T16:02:20;24.50;95.00
41324;DHT22;27073;51.128;4.220;2022-08-21T16:04:49;24.40;95.10
41324;DHT22;27073;51.128;4.220;2022-08-21T16:07:15;24.20;95.60
41324;DHT22;27073;51.128;4.220;2022-08-21T16:09:41;24.40;95.50
41324;DHT22;27073;51.128;4.220;2022-08-21T16:12:09;24.40;95.40
41324;DHT22;27073;51.128;4.220;2022-08-21T16:14:37;24.50;95.20
41324;DHT22;27073;51.128;4.220;2022-08-21T16:17:07;24.50;95.60
41324;DHT22;27073;51.128;4.220;2022-08-21T16:19:34;24.40;95.60
41324;DHT22;27073;51.128;4.220;2022-08-21T16:22:02;24.40;95.70
41324;DHT22;27073;51.128;4.220;2022-08-21T16:24:28;24.60;95.60
41324;DHT22;27073;51.128;4.220;2022-08-21T16:26:55;24.80;95.60
41324;DHT22;27073;51.128;4.220;2022-08-21T16:29:21;25.00;94.80
41324;DHT22;27073;51.128;4.220;2022-08-21T16:31:50;25.20;94.90
41324;DHT22;27073;51.128;4.220;2022-08-21T16:34:18;25.30;95.50
41324;DHT22;27073;51.128;4.220;2022-08-21T16:36:45;25.50;95.50
41324;DHT22;27073;51.128;4.220;2022-08-21T16:39:11;25.80;95.40
41324;DHT22;27073;51.128;4.220;2022-08-21T16:41:37;25.80;95.30
41324;DHT22;27073;51.128;4.220;2022-08-21T16:44:04;26.10;95.00
41324;DHT22;27073;51.128;4.220;2022-08-21T16:46:34;26.40;94.80
41324;DHT22;27073;51.128;4.220;2022-08-21T16:49:04;26.70;94.80
41324;DHT22;27073;51.128;4.220;2022-08-21T16:51:29;26.80;94.30
41324;DHT22;27073;51.128;4.220;2022-08-21T16:53:59;26.60;94.10
41324;DHT22;27073;51.128;4.220;2022-08-21T16:56:31;26.30;94.10
41324;DHT22;27073;51.128;4.220;2022-08-21T16:59:00;26.10;94.30
41324;DHT22;27073;51.128;4.220;2022-08-21T17:01:29;26.10;94.30
41324;DHT22;27073;51.128;4.220;2022-08-21T17:03:56;26.10;94.80
41324;DHT22;27073;51.128;4.220;2022-08-21T17:06:22;25.90;95.10
41324;DHT22;27073;51.128;4.220;2022-08-21T17:08:49;25.80;94.70
41324;DHT22;27073;51.128;4.220;2022-08-21T17:11:40;25.80;94.80